sensor_id;sensor_type;location;lat;lon;timestamp;P1;durP1;ratioP1;P2;durP2;ratioP2
70838;SDS011;58464;52.298;4.852;2023-10-13T00:00:21;20.70;;;7.90;;
70838;SDS011;58464;52.298;4.852;2023-10-13T00:02:59;51.83;;;17.33;;
70838;SDS011;58464;52.298;4.852;2023-10-13T00:05:29;37.58;;;15.48;;
70838;SDS011;58464;52.298;4.852;2023-10-13T00:07:56;52.80;;;20.52;;
70838;SDS011;58464;52.298;4.852;2023-10-13T00:10:21;21.77;;;8.43;;
70838;SDS011;58464;52.298;4.852;2023-10-13T00:12:46;53.90;;;19.40;;
70838;SDS011;58464;52.298;4.852;2023-10-13T00:15:16;25.13;;;9.70;;
70838;SDS011;58464;52.298;4.852;2023-10-13T00:17:41;18.65;;;6.55;;
70838;SDS011;58464;52.298;4.852;2023-10-13T00:20:07;27.77;;;10.35;;
70838;SDS011;58464;52.298;4.852;2023-10-13T00:22:52;35.70;;;10.85;;
70838;SDS011;58464;52.298;4.852;2023-10-13T00:25:17;21.80;;;7.57;;
70838;SDS011;58464;52.298;4.852;2023-10-13T00:27:51;30.13;;;10.52;;
70838;SDS011;58464;52.298;4.852;2023-10-13T00:30:17;7.70;;;3.85;;
70838;SDS011;58464;52.298;4.852;2023-10-13T00:32:43;17.30;;;5.40;;
70838;SDS011;58464;52.298;4.852;2023-10-13T00:35:10;12.98;;;5.05;;
70838;SDS011;58464;52.298;4.852;2023-10-13T00:37:38;13.77;;;5.28;;
70838;SDS011;58464;52.298;4.852;2023-10-13T00:40:09;12.13;;;5.15;;
70838;SDS011;58464;52.298;4.852;2023-10-13T00:42:51;12.30;;;4.80;;
70838;SDS011;58464;52.298;4.852;2023-10-13T00:45:17;16.33;;;5.57;;
70838;SDS011;58464;52.298;4.852;2023-10-13T00:47:43;16.92;;;4.63;;
70838;SDS011;58464;52.298;4.852;2023-10-13T00:50:15;16.35;;;5.32;;
70838;SDS011;58464;52.298;4.852;2023-10-13T00:52:42;15.98;;;5.68;;
70838;SDS011;58464;52.298;4.852;2023-10-13T00:55:11;18.67;;;5.05;;
70838;SDS011;58464;52.298;4.852;2023-10-13T00:57:38;16.52;;;5.63;;
70838;SDS011;58464;52.298;4.852;2023-10-13T01:00:05;18.58;;;5.72;;
70838;SDS011;58464;52.298;4.852;2023-10-13T01:02:43;12.70;;;3.63;;
70838;SDS011;58464;52.298;4.852;2023-10-13T01:05:10;13.15;;;3.55;;
70838;SDS011;58464;52.298;4.852;2023-10-13T01:07:36;12.02;;;3.80;;
70838;SDS011;58464;52.298;4.852;2023-10-13T01:10:09;20.00;;;4.68;;
70838;SDS011;58464;52.298;4.852;2023-10-13T01:12:38;11.15;;;4.20;;
70838;SDS011;58464;52.298;4.852;2023-10-13T01:15:03;15.17;;;4.47;;
70838;SDS011;58464;52.298;4.852;2023-10-13T01:17:33;19.50;;;5.78;;
70838;SDS011;58464;52.298;4.852;2023-10-13T01:19:59;14.68;;;6.40;;
70838;SDS011;58464;52.298;4.852;2023-10-13T01:22:24;13.02;;;6.03;;
70838;SDS011;58464;52.298;4.852;2023-10-13T01:24:49;11.43;;;5.97;;
70838;SDS011;58464;52.298;4.852;2023-10-13T01:27:16;12.05;;;6.43;;
70838;SDS011;58464;52.298;4.852;2023-10-13T01:29:48;24.20;;;9.35;;
70838;SDS011;58464;52.298;4.852;2023-10-13T01:32:19;29.63;;;9.35;;
70838;SDS011;58464;52.298;4.852;2023-10-13T01:34:44;10.85;;;6.40;;
70838;SDS011;58464;52.298;4.852;2023-10-13T01:37:12;9.35;;;6.05;;
70838;SDS011;58464;52.298;4.852;2023-10-13T01:39:37;10.27;;;5.25;;
70838;SDS011;58464;52.298;4.852;2023-10-13T01:42:02;11.10;;;6.07;;
70838;SDS011;58464;52.298;4.852;2023-10-13T01:44:28;11.10;;;5.55;;
70838;SDS011;58464;52.298;4.852;2023-10-13T01:46:57;16.75;;;6.43;;
70838;SDS011;58464;52.298;4.852;2023-10-13T01:49:32;13.10;;;5.75;;
70838;SDS011;58464;52.298;4.852;2023-10-13T01:52:26;10.88;;;5.93;;
70838;SDS011;58464;52.298;4.852;2023-10-13T01:54:52;12.65;;;6.53;;
70838;SDS011;58464;52.298;4.852;2023-10-13T01:57:19;11.75;;;7.80;;
70838;SDS011;58464;52.298;4.852;2023-10-13T01:59:46;15.27;;;8.57;;
70838;SDS011;58464;52.298;4.852;2023-10-13T02:02:13;16.67;;;9.88;;
70838;SDS011;58464;52.298;4.852;2023-10-13T02:04:38;15.18;;;9.73;;
70838;SDS011;58464;52.298;4.852;2023-10-13T02:07:14;14.98;;;9.23;;
70838;SDS011;58464;52.298;4.852;2023-10-13T02:09:40;16.30;;;9.90;;
70838;SDS011;58464;52.298;4.852;2023-10-13T02:12:07;17.13;;;10.75;;
70838;SDS011;58464;52.298;4.852;2023-10-13T02:14:34;18.92;;;10.38;;
70838;SDS011;58464;52.298;4.852;2023-10-13T02:17:01;18.13;;;11.07;;
70838;SDS011;58464;52.298;4.852;2023-10-13T02:19:41;16.40;;;11.18;;
70838;SDS011;58464;52.298;4.852;2023-10-13T02:22:11;16.65;;;11.32;;
70838;SDS011;58464;52.298;4.852;2023-10-13T02:24:37;18.55;;;12.07;;
70838;SDS011;58464;52.298;4.852;2023-10-13T02:27:08;20.17;;;10.98;;
70838;SDS011;58464;52.298;4.852;2023-10-13T02:29:38;25.27;;;13.38;;
70838;SDS011;58464;52.298;4.852;2023-10-13T02:32:04;22.90;;;12.68;;
70838;SDS011;58464;52.298;4.852;2023-10-13T02:34:34;17.60;;;11.82;;
70838;SDS011;58464;52.298;4.852;2023-10-13T02:37:00;16.83;;;12.23;;
70838;SDS011;58464;52.298;4.852;2023-10-13T02:39:25;20.43;;;11.70;;
70838;SDS011;58464;52.298;4.852;2023-10-13T02:41:52;21.45;;;10.95;;
70838;SDS011;58464;52.298;4.852;2023-10-13T02:44:17;14.23;;;10.93;;
70838;SDS011;58464;52.298;4.852;2023-10-13T02:46:53;19.48;;;11.38;;
70838;SDS011;58464;52.298;4.852;2023-10-13T02:49:20;15.40;;;11.10;;
70838;SDS011;58464;52.298;4.852;2023-10-13T02:51:46;21.50;;;11.30;;
70838;SDS011;58464;52.298;4.852;2023-10-13T02:54:11;18.08;;;11.05;;
70838;SDS011;58464;52.298;4.852;2023-10-13T02:56:43;17.02;;;10.00;;
70838;SDS011;58464;52.298;4.852;2023-10-13T02:59:21;17.40;;;10.60;;
70838;SDS011;58464;52.298;4.852;2023-10-13T03:01:59;18.00;;;9.80;;
70838;SDS011;58464;52.298;4.852;2023-10-13T03:04:25;17.92;;;10.75;;
70838;SDS011;58464;52.298;4.852;2023-10-13T03:06:50;15.18;;;11.23;;
70838;SDS011;58464;52.298;4.852;2023-10-13T03:09:16;15.55;;;11.60;;
70838;SDS011;58464;52.298;4.852;2023-10-13T03:11:47;18.35;;;12.13;;
70838;SDS011;58464;52.298;4.852;2023-10-13T03:14:16;14.32;;;10.63;;
70838;SDS011;58464;52.298;4.852;2023-10-13T03:16:58;16.50;;;10.97;;
70838;SDS011;58464;52.298;4.852;2023-10-13T03:19:44;19.05;;;11.02;;
70838;SDS011;58464;52.298;4.852;2023-10-13T03:22:16;16.65;;;11.25;;
70838;SDS011;58464;52.298;4.852;2023-10-13T03:24:44;19.80;;;10.77;;
70838;SDS011;58464;52.298;4.852;2023-10-13T03:27:16;19.27;;;10.48;;
70838;SDS011;58464;52.298;4.852;2023-10-13T03:29:43;14.60;;;11.00;;
70838;SDS011;58464;52.298;4.852;2023-10-13T03:32:13;16.70;;;11.02;;
70838;SDS011;58464;52.298;4.852;2023-10-13T03:34:40;14.80;;;11.48;;
70838;SDS011;58464;52.298;4.852;2023-10-13T03:37:36;15.90;;;10.85;;
70838;SDS011;58464;52.298;4.852;2023-10-13T03:40:07;15.95;;;10.88;;
70838;SDS011;58464;52.298;4.852;2023-10-13T03:42:41;16.50;;;11.10;;
70838;SDS011;58464;52.298;4.852;2023-10-13T03:45:09;14.68;;;10.40;;
70838;SDS011;58464;52.298;4.852;2023-10-13T03:47:36;14.45;;;10.45;;
70838;SDS011;58464;52.298;4.852;2023-10-13T03:50:03;16.77;;;9.52;;
70838;SDS011;58464;52.298;4.852;2023-10-13T03:52:40;16.88;;;10.73;;
70838;SDS011;58464;52.298;4.852;2023-10-13T03:55:06;14.02;;;9.38;;
70838;SDS011;58464;52.298;4.852;2023-10-13T03:57:33;12.82;;;8.98;;
70838;SDS011;58464;52.298;4.852;2023-10-13T04:00:05;10.27;;;6.85;;
70838;SDS011;58464;52.298;4.852;2023-10-13T04:02:35;11.63;;;7.53;;
70838;SDS011;58464;52.298;4.852;2023-10-13T04:05:02;12.00;;;7.63;;
70838;SDS011;58464;52.298;4.852;2023-10-13T04:07:47;12.57;;;6.80;;
70838;SDS011;58464;52.298;4.852;2023-10-13T04:10:31;9.03;;;6.53;;
70838;SDS011;58464;52.298;4.852;2023-10-13T04:13:09;9.93;;;5.25;;
70838;SDS011;58464;52.298;4.852;2023-10-13T04:15:52;10.23;;;4.90;;
70838;SDS011;58464;52.298;4.852;2023-10-13T04:18:41;10.95;;;4.25;;
70838;SDS011;58464;52.298;4.852;2023-10-13T04:21:24;6.07;;;4.03;;
70838;SDS011;58464;52.298;4.852;2023-10-13T04:24:09;7.30;;;3.60;;
70838;SDS011;58464;52.298;4.852;2023-10-13T04:26:51;6.65;;;4.05;;
70838;SDS011;58464;52.298;4.852;2023-10-13T04:29:35;6.38;;;4.32;;
70838;SDS011;58464;52.298;4.852;2023-10-13T04:32:19;11.18;;;3.70;;
70838;SDS011;58464;52.298;4.852;2023-10-13T04:37:23;6.30;;;3.00;;
70838;SDS011;58464;52.298;4.852;2023-10-13T04:39:54;6.88;;;3.47;;
70838;SDS011;58464;52.298;4.852;2023-10-13T04:42:24;9.40;;;3.70;;
70838;SDS011;58464;52.298;4.852;2023-10-13T04:45:13;12.25;;;4.28;;
70838;SDS011;58464;52.298;4.852;2023-10-13T04:47:56;8.07;;;3.95;;
70838;SDS011;58464;52.298;4.852;2023-10-13T04:50:46;9.15;;;4.57;;
70838;SDS011;58464;52.298;4.852;2023-10-13T04:53:15;8.05;;;4.20;;
70838;SDS011;58464;52.298;4.852;2023-10-13T04:55:59;7.38;;;3.92;;
70838;SDS011;58464;52.298;4.852;2023-10-13T04:58:33;9.00;;;4.47;;
70838;SDS011;58464;52.298;4.852;2023-10-13T05:01:04;8.18;;;5.22;;
70838;SDS011;58464;52.298;4.852;2023-10-13T05:03:48;8.57;;;4.40;;
70838;SDS011;58464;52.298;4.852;2023-10-13T05:06:32;6.50;;;3.47;;
70838;SDS011;58464;52.298;4.852;2023-10-13T05:09:06;9.23;;;4.60;;
70838;SDS011;58464;52.298;4.852;2023-10-13T05:11:50;10.77;;;4.63;;
70838;SDS011;58464;52.298;4.852;2023-10-13T05:14:34;7.32;;;3.63;;
70838;SDS011;58464;52.298;4.852;2023-10-13T05:17:23;8.47;;;4.37;;
70838;SDS011;58464;52.298;4.852;2023-10-13T05:20:07;7.97;;;3.65;;
70838;SDS011;58464;52.298;4.852;2023-10-13T05:22:51;8.98;;;2.95;;
70838;SDS011;58464;52.298;4.852;2023-10-13T05:25:36;9.67;;;3.03;;
70838;SDS011;58464;52.298;4.852;2023-10-13T05:28:19;8.70;;;3.20;;
70838;SDS011;58464;52.298;4.852;2023-10-13T05:31:03;9.77;;;2.97;;
70838;SDS011;58464;52.298;4.852;2023-10-13T05:33:47;13.37;;;3.63;;
70838;SDS011;58464;52.298;4.852;2023-10-13T05:36:31;10.43;;;2.87;;
70838;SDS011;58464;52.298;4.852;2023-10-13T05:39:15;13.60;;;2.90;;
70838;SDS011;58464;52.298;4.852;2023-10-13T05:41:59;12.75;;;4.20;;
70838;SDS011;58464;52.298;4.852;2023-10-13T05:44:43;11.25;;;2.95;;
70838;SDS011;58464;52.298;4.852;2023-10-13T05:47:27;9.15;;;2.83;;
70838;SDS011;58464;52.298;4.852;2023-10-13T05:52:39;10.90;;;3.45;;
70838;SDS011;58464;52.298;4.852;2023-10-13T05:55:25;11.87;;;3.07;;
70838;SDS011;58464;52.298;4.852;2023-10-13T05:58:09;9.63;;;3.05;;
70838;SDS011;58464;52.298;4.852;2023-10-13T06:00:53;17.95;;;3.78;;
70838;SDS011;58464;52.298;4.852;2023-10-13T06:03:37;9.90;;;3.42;;
70838;SDS011;58464;52.298;4.852;2023-10-13T06:06:21;19.65;;;3.45;;
70838;SDS011;58464;52.298;4.852;2023-10-13T06:09:07;22.35;;;4.18;;
70838;SDS011;58464;52.298;4.852;2023-10-13T06:11:50;13.88;;;3.30;;
70838;SDS011;58464;52.298;4.852;2023-10-13T06:14:34;22.40;;;4.17;;
70838;SDS011;58464;52.298;4.852;2023-10-13T06:17:18;9.68;;;3.05;;
70838;SDS011;58464;52.298;4.852;2023-10-13T06:20:02;11.52;;;3.40;;
70838;SDS011;58464;52.298;4.852;2023-10-13T06:22:47;11.68;;;3.38;;
70838;SDS011;58464;52.298;4.852;2023-10-13T06:25:31;8.20;;;3.30;;
70838;SDS011;58464;52.298;4.852;2023-10-13T06:28:15;18.45;;;4.47;;
70838;SDS011;58464;52.298;4.852;2023-10-13T06:30:59;14.02;;;3.85;;
70838;SDS011;58464;52.298;4.852;2023-10-13T06:33:31;14.15;;;3.88;;
70838;SDS011;58464;52.298;4.852;2023-10-13T06:36:01;17.45;;;5.00;;
70838;SDS011;58464;52.298;4.852;2023-10-13T06:38:26;13.30;;;3.10;;
70838;SDS011;58464;52.298;4.852;2023-10-13T06:40:56;17.50;;;3.45;;
70838;SDS011;58464;52.298;4.852;2023-10-13T06:43:21;20.15;;;4.60;;
70838;SDS011;58464;52.298;4.852;2023-10-13T06:45:48;10.93;;;3.75;;
70838;SDS011;58464;52.298;4.852;2023-10-13T06:48:25;14.02;;;3.83;;
70838;SDS011;58464;52.298;4.852;2023-10-13T06:50:51;21.60;;;3.75;;
70838;SDS011;58464;52.298;4.852;2023-10-13T06:53:21;12.45;;;4.10;;
70838;SDS011;58464;52.298;4.852;2023-10-13T06:55:46;9.15;;;3.72;;
70838;SDS011;58464;52.298;4.852;2023-10-13T06:58:15;8.23;;;3.75;;
70838;SDS011;58464;52.298;4.852;2023-10-13T07:00:43;15.80;;;3.88;;
70838;SDS011;58464;52.298;4.852;2023-10-13T07:03:24;11.93;;;3.40;;
70838;SDS011;58464;52.298;4.852;2023-10-13T07:05:50;12.50;;;3.50;;
70838;SDS011;58464;52.298;4.852;2023-10-13T07:08:16;11.70;;;4.30;;
70838;SDS011;58464;52.298;4.852;2023-10-13T07:10:54;11.57;;;4.18;;
70838;SDS011;58464;52.298;4.852;2023-10-13T07:13:38;21.63;;;4.05;;
70838;SDS011;58464;52.298;4.852;2023-10-13T07:16:04;11.77;;;4.65;;
70838;SDS011;58464;52.298;4.852;2023-10-13T07:18:38;14.25;;;4.72;;
70838;SDS011;58464;52.298;4.852;2023-10-13T07:21:14;16.45;;;5.13;;
70838;SDS011;58464;52.298;4.852;2023-10-13T07:23:39;13.95;;;4.68;;
70838;SDS011;58464;52.298;4.852;2023-10-13T07:26:05;13.35;;;4.45;;
70838;SDS011;58464;52.298;4.852;2023-10-13T07:28:33;9.80;;;4.68;;
70838;SDS011;58464;52.298;4.852;2023-10-13T07:31:04;13.65;;;5.03;;
70838;SDS011;58464;52.298;4.852;2023-10-13T07:33:29;18.13;;;5.72;;
70838;SDS011;58464;52.298;4.852;2023-10-13T07:36:02;11.52;;;5.75;;
70838;SDS011;58464;52.298;4.852;2023-10-13T07:39:03;17.98;;;6.13;;
70838;SDS011;58464;52.298;4.852;2023-10-13T07:41:46;13.18;;;5.47;;
70838;SDS011;58464;52.298;4.852;2023-10-13T07:44:16;12.38;;;5.63;;
70838;SDS011;58464;52.298;4.852;2023-10-13T07:46:41;16.67;;;5.00;;
70838;SDS011;58464;52.298;4.852;2023-10-13T07:49:11;20.35;;;5.32;;
70838;SDS011;58464;52.298;4.852;2023-10-13T07:51:41;9.50;;;4.90;;
70838;SDS011;58464;52.298;4.852;2023-10-13T07:54:13;14.70;;;5.30;;
70838;SDS011;58464;52.298;4.852;2023-10-13T07:56:46;9.50;;;4.93;;
70838;SDS011;58464;52.298;4.852;2023-10-13T07:59:11;14.50;;;5.40;;
70838;SDS011;58464;52.298;4.852;2023-10-13T08:01:38;12.43;;;5.13;;
70838;SDS011;58464;52.298;4.852;2023-10-13T08:04:07;13.43;;;6.25;;
70838;SDS011;58464;52.298;4.852;2023-10-13T08:06:36;14.68;;;4.93;;
70838;SDS011;58464;52.298;4.852;2023-10-13T08:09:01;12.23;;;4.95;;
70838;SDS011;58464;52.298;4.852;2023-10-13T08:11:34;17.67;;;6.25;;
70838;SDS011;58464;52.298;4.852;2023-10-13T08:14:01;14.13;;;5.10;;
70838;SDS011;58464;52.298;4.852;2023-10-13T08:16:45;17.48;;;4.78;;
70838;SDS011;58464;52.298;4.852;2023-10-13T08:19:21;13.77;;;5.25;;
70838;SDS011;58464;52.298;4.852;2023-10-13T08:21:52;20.00;;;5.05;;
70838;SDS011;58464;52.298;4.852;2023-10-13T08:24:22;15.88;;;5.07;;
70838;SDS011;58464;52.298;4.852;2023-10-13T08:27:14;16.33;;;5.25;;
70838;SDS011;58464;52.298;4.852;2023-10-13T08:29:46;11.93;;;4.88;;
70838;SDS011;58464;52.298;4.852;2023-10-13T08:32:23;11.10;;;4.55;;
70838;SDS011;58464;52.298;4.852;2023-10-13T08:34:49;12.50;;;4.50;;
70838;SDS011;58464;52.298;4.852;2023-10-13T08:37:34;17.48;;;5.00;;
70838;SDS011;58464;52.298;4.852;2023-10-13T08:40:12;17.95;;;4.13;;
70838;SDS011;58464;52.298;4.852;2023-10-13T08:42:56;19.40;;;4.45;;
70838;SDS011;58464;52.298;4.852;2023-10-13T08:45:28;18.17;;;4.53;;
70838;SDS011;58464;52.298;4.852;2023-10-13T08:47:56;11.57;;;3.92;;
70838;SDS011;58464;52.298;4.852;2023-10-13T08:56:12;20.23;;;4.60;;
70838;SDS011;58464;52.298;4.852;2023-10-13T09:04:00;22.92;;;4.00;;
70838;SDS011;58464;52.298;4.852;2023-10-13T09:09:31;16.42;;;3.88;;
70838;SDS011;58464;52.298;4.852;2023-10-13T09:12:14;18.38;;;4.35;;
70838;SDS011;58464;52.298;4.852;2023-10-13T09:14:42;22.83;;;4.30;;
70838;SDS011;58464;52.298;4.852;2023-10-13T09:17:12;15.38;;;4.47;;
70838;SDS011;58464;52.298;4.852;2023-10-13T09:20:09;17.60;;;4.28;;
70838;SDS011;58464;52.298;4.852;2023-10-13T09:22:52;19.55;;;4.25;;
70838;SDS011;58464;52.298;4.852;2023-10-13T09:25:27;13.52;;;2.88;;
70838;SDS011;58464;52.298;4.852;2023-10-13T09:27:58;11.93;;;3.58;;
70838;SDS011;58464;52.298;4.852;2023-10-13T09:30:25;17.13;;;3.88;;
70838;SDS011;58464;52.298;4.852;2023-10-13T09:33:00;15.68;;;4.60;;
70838;SDS011;58464;52.298;4.852;2023-10-13T09:35:33;15.73;;;4.18;;
70838;SDS011;58464;52.298;4.852;2023-10-13T09:38:02;19.27;;;3.80;;
70838;SDS011;58464;52.298;4.852;2023-10-13T09:40:27;21.55;;;4.55;;
70838;SDS011;58464;52.298;4.852;2023-10-13T09:45:31;13.63;;;3.40;;
70838;SDS011;58464;52.298;4.852;2023-10-13T09:48:12;19.92;;;4.10;;
70838;SDS011;58464;52.298;4.852;2023-10-13T09:50:46;18.80;;;4.80;;
70838;SDS011;58464;52.298;4.852;2023-10-13T09:53:13;17.80;;;4.32;;
70838;SDS011;58464;52.298;4.852;2023-10-13T09:55:44;12.90;;;3.33;;
70838;SDS011;58464;52.298;4.852;2023-10-13T09:58:11;12.10;;;3.60;;
70838;SDS011;58464;52.298;4.852;2023-10-13T10:00:51;15.48;;;4.00;;
70838;SDS011;58464;52.298;4.852;2023-10-13T10:03:24;25.77;;;4.00;;
70838;SDS011;58464;52.298;4.852;2023-10-13T10:06:04;20.33;;;4.63;;
70838;SDS011;58464;52.298;4.852;2023-10-13T10:08:31;17.55;;;3.90;;
70838;SDS011;58464;52.298;4.852;2023-10-13T10:16:29;21.45;;;3.85;;
70838;SDS011;58464;52.298;4.852;2023-10-13T10:19:02;18.45;;;4.93;;
70838;SDS011;58464;52.298;4.852;2023-10-13T10:21:34;10.37;;;4.23;;
70838;SDS011;58464;52.298;4.852;2023-10-13T10:24:00;20.98;;;4.57;;
70838;SDS011;58464;52.298;4.852;2023-10-13T10:26:38;17.88;;;4.03;;
70838;SDS011;58464;52.298;4.852;2023-10-13T10:29:10;22.13;;;4.70;;
70838;SDS011;58464;52.298;4.852;2023-10-13T10:31:35;13.30;;;4.57;;
70838;SDS011;58464;52.298;4.852;2023-10-13T10:34:16;18.50;;;5.35;;
70838;SDS011;58464;52.298;4.852;2023-10-13T10:36:46;13.52;;;4.28;;
70838;SDS011;58464;52.298;4.852;2023-10-13T10:39:11;19.33;;;4.38;;
70838;SDS011;58464;52.298;4.852;2023-10-13T10:41:38;28.67;;;4.22;;
70838;SDS011;58464;52.298;4.852;2023-10-13T10:44:19;15.77;;;3.72;;
70838;SDS011;58464;52.298;4.852;2023-10-13T10:47:12;16.10;;;3.90;;
70838;SDS011;58464;52.298;4.852;2023-10-13T10:49:59;21.25;;;4.75;;
70838;SDS011;58464;52.298;4.852;2023-10-13T10:52:32;16.45;;;4.07;;
70838;SDS011;58464;52.298;4.852;2023-10-13T10:55:02;19.17;;;5.15;;
70838;SDS011;58464;52.298;4.852;2023-10-13T10:57:31;18.92;;;4.55;;
70838;SDS011;58464;52.298;4.852;2023-10-13T11:00:04;20.38;;;4.60;;
70838;SDS011;58464;52.298;4.852;2023-10-13T11:02:40;22.38;;;5.53;;
70838;SDS011;58464;52.298;4.852;2023-10-13T11:05:06;22.02;;;4.45;;
70838;SDS011;58464;52.298;4.852;2023-10-13T11:07:31;27.75;;;4.85;;
70838;SDS011;58464;52.298;4.852;2023-10-13T11:10:09;9.38;;;3.67;;
70838;SDS011;58464;52.298;4.852;2023-10-13T11:12:52;13.73;;;3.90;;
70838;SDS011;58464;52.298;4.852;2023-10-13T11:15:18;20.60;;;4.75;;
70838;SDS011;58464;52.298;4.852;2023-10-13T11:17:58;21.23;;;5.10;;
70838;SDS011;58464;52.298;4.852;2023-10-13T11:20:23;21.25;;;4.60;;
70838;SDS011;58464;52.298;4.852;2023-10-13T11:23:14;20.35;;;4.65;;
70838;SDS011;58464;52.298;4.852;2023-10-13T11:25:40;19.55;;;4.38;;
70838;SDS011;58464;52.298;4.852;2023-10-13T11:30:47;16.73;;;5.28;;
70838;SDS011;58464;52.298;4.852;2023-10-13T11:33:15;17.83;;;4.15;;
70838;SDS011;58464;52.298;4.852;2023-10-13T11:35:45;20.85;;;5.43;;
70838;SDS011;58464;52.298;4.852;2023-10-13T11:38:14;20.80;;;4.45;;
70838;SDS011;58464;52.298;4.852;2023-10-13T11:40:40;12.80;;;4.32;;
70838;SDS011;58464;52.298;4.852;2023-10-13T11:43:09;18.80;;;4.80;;
70838;SDS011;58464;52.298;4.852;2023-10-13T11:45:40;18.70;;;4.55;;
70838;SDS011;58464;52.298;4.852;2023-10-13T11:48:23;21.60;;;4.55;;
70838;SDS011;58464;52.298;4.852;2023-10-13T11:51:00;13.73;;;3.60;;
70838;SDS011;58464;52.298;4.852;2023-10-13T11:53:25;18.25;;;6.35;;
70838;SDS011;58464;52.298;4.852;2023-10-13T11:55:52;19.27;;;5.65;;
70838;SDS011;58464;52.298;4.852;2023-10-13T11:58:17;11.63;;;4.97;;
70838;SDS011;58464;52.298;4.852;2023-10-13T12:00:43;16.30;;;4.63;;
70838;SDS011;58464;52.298;4.852;2023-10-13T12:03:19;19.75;;;4.97;;
70838;SDS011;58464;52.298;4.852;2023-10-13T12:06:03;25.05;;;5.53;;
70838;SDS011;58464;52.298;4.852;2023-10-13T12:08:44;23.60;;;6.05;;
70838;SDS011;58464;52.298;4.852;2023-10-13T12:11:18;18.23;;;5.18;;
70838;SDS011;58464;52.298;4.852;2023-10-13T12:13:57;14.10;;;5.45;;
70838;SDS011;58464;52.298;4.852;2023-10-13T12:16:22;17.17;;;5.05;;
70838;SDS011;58464;52.298;4.852;2023-10-13T12:18:48;15.30;;;4.80;;
70838;SDS011;58464;52.298;4.852;2023-10-13T12:21:21;14.32;;;4.55;;
70838;SDS011;58464;52.298;4.852;2023-10-13T12:23:47;14.85;;;5.30;;
70838;SDS011;58464;52.298;4.852;2023-10-13T12:26:12;20.85;;;5.05;;
70838;SDS011;58464;52.298;4.852;2023-10-13T12:28:58;14.18;;;5.05;;
70838;SDS011;58464;52.298;4.852;2023-10-13T12:31:32;13.05;;;4.32;;
70838;SDS011;58464;52.298;4.852;2023-10-13T12:33:59;18.73;;;4.80;;
70838;SDS011;58464;52.298;4.852;2023-10-13T12:36:34;22.02;;;4.65;;
70838;SDS011;58464;52.298;4.852;2023-10-13T12:39:06;16.45;;;5.28;;
70838;SDS011;58464;52.298;4.852;2023-10-13T12:41:32;16.40;;;5.23;;
70838;SDS011;58464;52.298;4.852;2023-10-13T12:44:16;19.00;;;4.97;;
70838;SDS011;58464;52.298;4.852;2023-10-13T12:46:59;13.83;;;5.33;;
70838;SDS011;58464;52.298;4.852;2023-10-13T12:49:43;15.35;;;4.93;;
70838;SDS011;58464;52.298;4.852;2023-10-13T12:52:13;21.50;;;5.63;;
70838;SDS011;58464;52.298;4.852;2023-10-13T12:54:50;21.98;;;6.18;;
70838;SDS011;58464;52.298;4.852;2023-10-13T12:57:21;17.15;;;4.93;;
70838;SDS011;58464;52.298;4.852;2023-10-13T12:59:51;21.00;;;5.53;;
70838;SDS011;58464;52.298;4.852;2023-10-13T13:02:19;21.00;;;6.35;;
70838;SDS011;58464;52.298;4.852;2023-10-13T13:04:45;20.63;;;5.35;;
70838;SDS011;58464;52.298;4.852;2023-10-13T13:07:13;29.45;;;6.15;;
70838;SDS011;58464;52.298;4.852;2023-10-13T13:09:42;19.42;;;5.57;;
70838;SDS011;58464;52.298;4.852;2023-10-13T13:12:07;13.07;;;5.05;;
70838;SDS011;58464;52.298;4.852;2023-10-13T13:14:33;15.23;;;4.50;;
70838;SDS011;58464;52.298;4.852;2023-10-13T13:17:01;24.25;;;5.97;;
70838;SDS011;58464;52.298;4.852;2023-10-13T13:19:31;21.40;;;5.60;;
70838;SDS011;58464;52.298;4.852;2023-10-13T13:21:59;15.13;;;4.68;;
70838;SDS011;58464;52.298;4.852;2023-10-13T13:24:25;18.60;;;4.78;;
70838;SDS011;58464;52.298;4.852;2023-10-13T13:26:54;17.83;;;4.55;;
70838;SDS011;58464;52.298;4.852;2023-10-13T13:29:20;21.08;;;5.20;;
70838;SDS011;58464;52.298;4.852;2023-10-13T13:31:45;20.83;;;5.07;;
70838;SDS011;58464;52.298;4.852;2023-10-13T13:34:11;28.73;;;5.25;;
70838;SDS011;58464;52.298;4.852;2023-10-13T13:36:39;20.05;;;5.47;;
70838;SDS011;58464;52.298;4.852;2023-10-13T13:39:12;22.05;;;4.50;;
70838;SDS011;58464;52.298;4.852;2023-10-13T13:41:42;16.73;;;4.55;;
70838;SDS011;58464;52.298;4.852;2023-10-13T13:44:08;16.10;;;4.38;;
70838;SDS011;58464;52.298;4.852;2023-10-13T13:46:40;21.35;;;4.32;;
70838;SDS011;58464;52.298;4.852;2023-10-13T13:49:08;19.40;;;5.00;;
70838;SDS011;58464;52.298;4.852;2023-10-13T13:54:07;11.13;;;3.60;;
70838;SDS011;58464;52.298;4.852;2023-10-13T13:56:33;16.90;;;4.40;;
70838;SDS011;58464;52.298;4.852;2023-10-13T13:59:03;16.75;;;4.20;;
70838;SDS011;58464;52.298;4.852;2023-10-13T14:01:33;19.95;;;4.70;;
70838;SDS011;58464;52.298;4.852;2023-10-13T14:04:02;17.17;;;4.72;;
70838;SDS011;58464;52.298;4.852;2023-10-13T14:06:28;16.65;;;4.05;;
70838;SDS011;58464;52.298;4.852;2023-10-13T14:08:54;22.35;;;4.80;;
70838;SDS011;58464;52.298;4.852;2023-10-13T14:11:25;29.15;;;5.22;;
70838;SDS011;58464;52.298;4.852;2023-10-13T14:16:37;15.43;;;4.85;;
70838;SDS011;58464;52.298;4.852;2023-10-13T14:19:02;20.92;;;5.13;;
70838;SDS011;58464;52.298;4.852;2023-10-13T14:21:32;20.50;;;6.03;;
70838;SDS011;58464;52.298;4.852;2023-10-13T14:23:59;13.38;;;3.85;;
70838;SDS011;58464;52.298;4.852;2023-10-13T14:26:26;17.77;;;4.53;;
70838;SDS011;58464;52.298;4.852;2023-10-13T14:28:52;20.63;;;4.60;;
70838;SDS011;58464;52.298;4.852;2023-10-13T14:31:27;21.38;;;5.05;;
70838;SDS011;58464;52.298;4.852;2023-10-13T14:33:52;16.00;;;4.10;;
70838;SDS011;58464;52.298;4.852;2023-10-13T14:36:18;21.00;;;6.85;;
70838;SDS011;58464;52.298;4.852;2023-10-13T14:38:46;20.17;;;5.35;;
70838;SDS011;58464;52.298;4.852;2023-10-13T14:41:14;21.15;;;5.10;;
70838;SDS011;58464;52.298;4.852;2023-10-13T14:43:39;21.67;;;5.70;;
70838;SDS011;58464;52.298;4.852;2023-10-13T14:46:07;18.83;;;5.60;;
70838;SDS011;58464;52.298;4.852;2023-10-13T14:48:33;18.33;;;5.72;;
70838;SDS011;58464;52.298;4.852;2023-10-13T14:50:58;21.87;;;5.43;;
70838;SDS011;58464;52.298;4.852;2023-10-13T14:53:23;25.17;;;6.10;;
70838;SDS011;58464;52.298;4.852;2023-10-13T14:55:48;16.63;;;5.33;;
70838;SDS011;58464;52.298;4.852;2023-10-13T14:58:16;19.58;;;5.28;;
70838;SDS011;58464;52.298;4.852;2023-10-13T15:00:42;24.00;;;5.73;;
70838;SDS011;58464;52.298;4.852;2023-10-13T15:03:12;33.15;;;7.10;;
70838;SDS011;58464;52.298;4.852;2023-10-13T15:05:38;15.95;;;4.20;;
70838;SDS011;58464;52.298;4.852;2023-10-13T15:08:04;24.23;;;5.63;;
70838;SDS011;58464;52.298;4.852;2023-10-13T15:10:31;14.27;;;4.10;;
70838;SDS011;58464;52.298;4.852;2023-10-13T15:12:56;12.30;;;3.93;;
70838;SDS011;58464;52.298;4.852;2023-10-13T15:15:24;18.98;;;4.45;;
70838;SDS011;58464;52.298;4.852;2023-10-13T15:17:49;24.15;;;5.13;;
70838;SDS011;58464;52.298;4.852;2023-10-13T15:20:15;17.35;;;5.22;;
70838;SDS011;58464;52.298;4.852;2023-10-13T15:22:43;30.23;;;5.18;;
70838;SDS011;58464;52.298;4.852;2023-10-13T15:25:08;19.90;;;5.53;;
70838;SDS011;58464;52.298;4.852;2023-10-13T15:27:41;16.50;;;3.70;;
70838;SDS011;58464;52.298;4.852;2023-10-13T15:30:07;23.38;;;4.55;;
70838;SDS011;58464;52.298;4.852;2023-10-13T15:32:45;18.52;;;3.20;;
70838;SDS011;58464;52.298;4.852;2023-10-13T15:35:10;26.75;;;4.85;;
70838;SDS011;58464;52.298;4.852;2023-10-13T15:37:37;20.80;;;5.28;;